sensor_id;sensor_type;location;lat;lon;timestamp;P1;durP1;ratioP1;P2;durP2;ratioP2
68989;SDS011;56046;47.270;11.368;2022-08-21T00:01:20;7.60;;;4.60;;
68989;SDS011;56046;47.270;11.368;2022-08-21T00:03:46;8.10;;;4.40;;
68989;SDS011;56046;47.270;11.368;2022-08-21T00:06:11;8.83;;;4.50;;
68989;SDS011;56046;47.270;11.368;2022-08-21T00:08:37;6.90;;;4.00;;
68989;SDS011;56046;47.270;11.368;2022-08-21T00:11:03;7.43;;;4.40;;
68989;SDS011;56046;47.270;11.368;2022-08-21T00:13:28;7.22;;;3.90;;
68989;SDS011;56046;47.270;11.368;2022-08-21T00:15:53;6.97;;;4.20;;
68989;SDS011;56046;47.270;11.368;2022-08-21T00:18:19;8.07;;;4.20;;
68989;SDS011;56046;47.270;11.368;2022-08-21T00:20:44;6.90;;;4.40;;
68989;SDS011;56046;47.270;11.368;2022-08-21T00:23:10;7.13;;;4.00;;
68989;SDS011;56046;47.270;11.368;2022-08-21T00:25:35;8.30;;;4.13;;
68989;SDS011;56046;47.270;11.368;2022-08-21T00:28:00;7.57;;;4.10;;
68989;SDS011;56046;47.270;11.368;2022-08-21T00:30:27;7.03;;;4.45;;
68989;SDS011;56046;47.270;11.368;2022-08-21T00:32:53;6.20;;;3.70;;
68989;SDS011;56046;47.270;11.368;2022-08-21T00:35:19;7.15;;;4.00;;
68989;SDS011;56046;47.270;11.368;2022-08-21T00:37:45;7.05;;;4.13;;
68989;SDS011;56046;47.270;11.368;2022-08-21T00:40:12;8.90;;;4.80;;
68989;SDS011;56046;47.270;11.368;2022-08-21T00:42:38;7.35;;;3.63;;
68989;SDS011;56046;47.270;11.368;2022-08-21T00:45:04;6.72;;;3.88;;
68989;SDS011;56046;47.270;11.368;2022-08-21T00:47:30;7.73;;;4.10;;
68989;SDS011;56046;47.270;11.368;2022-08-21T00:49:55;8.32;;;4.47;;
68989;SDS011;56046;47.270;11.368;2022-08-21T00:52:22;10.13;;;4.40;;
68989;SDS011;56046;47.270;11.368;2022-08-21T00:54:49;9.40;;;5.10;;
68989;SDS011;56046;47.270;11.368;2022-08-21T00:57:17;10.60;;;4.93;;
68989;SDS011;56046;47.270;11.368;2022-08-21T00:59:44;10.68;;;5.45;;
68989;SDS011;56046;47.270;11.368;2022-08-21T01:02:10;9.13;;;5.20;;
68989;SDS011;56046;47.270;11.368;2022-08-21T01:04:36;9.55;;;5.35;;
68989;SDS011;56046;47.270;11.368;2022-08-21T01:07:01;9.10;;;4.80;;
68989;SDS011;56046;47.270;11.368;2022-08-21T01:09:27;8.68;;;4.57;;
68989;SDS011;56046;47.270;11.368;2022-08-21T01:11:52;7.10;;;4.10;;
68989;SDS011;56046;47.270;11.368;2022-08-21T01:14:18;8.03;;;4.50;;
68989;SDS011;56046;47.270;11.368;2022-08-21T01:16:45;7.78;;;4.03;;
68989;SDS011;56046;47.270;11.368;2022-08-21T01:19:11;7.53;;;4.60;;
68989;SDS011;56046;47.270;11.368;2022-08-21T01:21:36;7.83;;;4.40;;
68989;SDS011;56046;47.270;11.368;2022-08-21T01:24:02;6.83;;;4.13;;
68989;SDS011;56046;47.270;11.368;2022-08-21T01:26:28;7.20;;;4.53;;
68989;SDS011;56046;47.270;11.368;2022-08-21T01:31:20;11.43;;;5.35;;
68989;SDS011;56046;47.270;11.368;2022-08-21T01:33:47;9.40;;;5.45;;
68989;SDS011;56046;47.270;11.368;2022-08-21T01:36:12;10.47;;;5.27;;
68989;SDS011;56046;47.270;11.368;2022-08-21T01:38:37;11.30;;;5.80;;
68989;SDS011;56046;47.270;11.368;2022-08-21T01:41:03;10.37;;;6.37;;
68989;SDS011;56046;47.270;11.368;2022-08-21T01:43:28;10.57;;;5.63;;
68989;SDS011;56046;47.270;11.368;2022-08-21T01:45:53;10.00;;;5.87;;
68989;SDS011;56046;47.270;11.368;2022-08-21T01:48:18;9.73;;;5.77;;
68989;SDS011;56046;47.270;11.368;2022-08-21T01:50:44;9.53;;;5.23;;
68989;SDS011;56046;47.270;11.368;2022-08-21T01:53:10;8.68;;;5.20;;
68989;SDS011;56046;47.270;11.368;2022-08-21T01:55:35;8.70;;;5.00;;
68989;SDS011;56046;47.270;11.368;2022-08-21T01:58:01;8.70;;;5.30;;
68989;SDS011;56046;47.270;11.368;2022-08-21T02:00:26;9.97;;;5.03;;
68989;SDS011;56046;47.270;11.368;2022-08-21T02:02:52;10.87;;;4.83;;
68989;SDS011;56046;47.270;11.368;2022-08-21T02:05:17;8.90;;;4.60;;
68989;SDS011;56046;47.270;11.368;2022-08-21T02:07:44;8.00;;;4.47;;
68989;SDS011;56046;47.270;11.368;2022-08-21T02:10:12;7.40;;;4.53;;
68989;SDS011;56046;47.270;11.368;2022-08-21T02:12:37;7.50;;;4.43;;
68989;SDS011;56046;47.270;11.368;2022-08-21T02:15:03;6.83;;;4.30;;
68989;SDS011;56046;47.270;11.368;2022-08-21T02:17:36;7.57;;;4.40;;
68989;SDS011;56046;47.270;11.368;2022-08-21T02:20:02;10.32;;;4.78;;
68989;SDS011;56046;47.270;11.368;2022-08-21T02:22:28;8.18;;;5.13;;
68989;SDS011;56046;47.270;11.368;2022-08-21T02:24:53;7.57;;;4.70;;
68989;SDS011;56046;47.270;11.368;2022-08-21T02:27:18;7.63;;;4.70;;
68989;SDS011;56046;47.270;11.368;2022-08-21T02:29:44;6.90;;;4.20;;
68989;SDS011;56046;47.270;11.368;2022-08-21T02:32:09;7.47;;;3.93;;
68989;SDS011;56046;47.270;11.368;2022-08-21T02:34:35;9.15;;;4.22;;
68989;SDS011;56046;47.270;11.368;2022-08-21T02:37:00;8.07;;;4.70;;
68989;SDS011;56046;47.270;11.368;2022-08-21T02:39:25;7.33;;;3.83;;
68989;SDS011;56046;47.270;11.368;2022-08-21T02:41:50;6.33;;;3.40;;
68989;SDS011;56046;47.270;11.368;2022-08-21T02:44:16;6.60;;;3.53;;
68989;SDS011;56046;47.270;11.368;2022-08-21T02:46:41;7.60;;;4.00;;
68989;SDS011;56046;47.270;11.368;2022-08-21T02:49:06;7.50;;;3.90;;
68989;SDS011;56046;47.270;11.368;2022-08-21T02:51:31;6.23;;;3.57;;
68989;SDS011;56046;47.270;11.368;2022-08-21T02:53:57;8.97;;;4.00;;
68989;SDS011;56046;47.270;11.368;2022-08-21T02:56:22;6.50;;;4.00;;
68989;SDS011;56046;47.270;11.368;2022-08-21T02:58:48;6.57;;;4.37;;
68989;SDS011;56046;47.270;11.368;2022-08-21T03:01:14;6.15;;;3.90;;
68989;SDS011;56046;47.270;11.368;2022-08-21T03:03:41;7.05;;;4.60;;
68989;SDS011;56046;47.270;11.368;2022-08-21T03:06:08;6.53;;;4.07;;
68989;SDS011;56046;47.270;11.368;2022-08-21T03:08:34;8.27;;;4.10;;
68989;SDS011;56046;47.270;11.368;2022-08-21T03:11:00;8.43;;;4.23;;
68989;SDS011;56046;47.270;11.368;2022-08-21T03:13:26;8.50;;;4.00;;
68989;SDS011;56046;47.270;11.368;2022-08-21T03:15:52;7.72;;;4.30;;
68989;SDS011;56046;47.270;11.368;2022-08-21T03:18:18;7.30;;;4.30;;
68989;SDS011;56046;47.270;11.368;2022-08-21T03:20:43;7.10;;;4.40;;
68989;SDS011;56046;47.270;11.368;2022-08-21T03:23:10;7.70;;;3.85;;
68989;SDS011;56046;47.270;11.368;2022-08-21T03:25:35;7.07;;;3.73;;
68989;SDS011;56046;47.270;11.368;2022-08-21T03:28:01;11.88;;;4.03;;
68989;SDS011;56046;47.270;11.368;2022-08-21T03:30:27;7.60;;;3.93;;
68989;SDS011;56046;47.270;11.368;2022-08-21T03:32:53;6.90;;;4.38;;
68989;SDS011;56046;47.270;11.368;2022-08-21T03:35:19;7.40;;;4.20;;
68989;SDS011;56046;47.270;11.368;2022-08-21T03:37:45;7.17;;;3.57;;
68989;SDS011;56046;47.270;11.368;2022-08-21T03:40:11;11.38;;;4.60;;
68989;SDS011;56046;47.270;11.368;2022-08-21T03:42:36;8.70;;;4.13;;
68989;SDS011;56046;47.270;11.368;2022-08-21T03:45:02;6.73;;;3.40;;
68989;SDS011;56046;47.270;11.368;2022-08-21T03:47:28;7.03;;;3.67;;
68989;SDS011;56046;47.270;11.368;2022-08-21T03:49:53;8.07;;;3.57;;
68989;SDS011;56046;47.270;11.368;2022-08-21T03:52:19;5.03;;;3.30;;
68989;SDS011;56046;47.270;11.368;2022-08-21T03:54:44;6.00;;;3.13;;
68989;SDS011;56046;47.270;11.368;2022-08-21T03:57:10;6.95;;;3.55;;
68989;SDS011;56046;47.270;11.368;2022-08-21T03:59:36;7.00;;;3.67;;
68989;SDS011;56046;47.270;11.368;2022-08-21T04:02:02;5.80;;;3.50;;
68989;SDS011;56046;47.270;11.368;2022-08-21T04:04:28;8.35;;;3.45;;
68989;SDS011;56046;47.270;11.368;2022-08-21T04:06:54;6.90;;;3.30;;
68989;SDS011;56046;47.270;11.368;2022-08-21T04:09:19;7.45;;;3.40;;
68989;SDS011;56046;47.270;11.368;2022-08-21T04:11:45;5.53;;;3.50;;
68989;SDS011;56046;47.270;11.368;2022-08-21T04:14:12;7.47;;;2.97;;
68989;SDS011;56046;47.270;11.368;2022-08-21T04:16:37;6.40;;;3.80;;
68989;SDS011;56046;47.270;11.368;2022-08-21T04:19:03;5.40;;;3.30;;
68989;SDS011;56046;47.270;11.368;2022-08-21T04:21:28;5.68;;;3.13;;
68989;SDS011;56046;47.270;11.368;2022-08-21T04:23:54;6.67;;;3.40;;
68989;SDS011;56046;47.270;11.368;2022-08-21T04:26:20;9.05;;;3.47;;
68989;SDS011;56046;47.270;11.368;2022-08-21T04:28:45;6.20;;;4.00;;
68989;SDS011;56046;47.270;11.368;2022-08-21T04:31:10;6.47;;;3.67;;
68989;SDS011;56046;47.270;11.368;2022-08-21T04:33:35;7.27;;;4.03;;
68989;SDS011;56046;47.270;11.368;2022-08-21T04:36:01;7.80;;;3.60;;
68989;SDS011;56046;47.270;11.368;2022-08-21T04:38:26;7.13;;;3.23;;
68989;SDS011;56046;47.270;11.368;2022-08-21T04:40:52;12.60;;;3.72;;
68989;SDS011;56046;47.270;11.368;2022-08-21T04:43:17;7.00;;;3.07;;
68989;SDS011;56046;47.270;11.368;2022-08-21T04:45:44;5.63;;;3.53;;
68989;SDS011;56046;47.270;11.368;2022-08-21T04:48:10;5.60;;;3.60;;
68989;SDS011;56046;47.270;11.368;2022-08-21T04:50:45;5.57;;;3.05;;
68989;SDS011;56046;47.270;11.368;2022-08-21T04:53:16;6.55;;;3.20;;
68989;SDS011;56046;47.270;11.368;2022-08-21T04:55:43;6.85;;;3.97;;
68989;SDS011;56046;47.270;11.368;2022-08-21T04:58:09;7.37;;;3.47;;
68989;SDS011;56046;47.270;11.368;2022-08-21T05:00:36;7.03;;;3.97;;
68989;SDS011;56046;47.270;11.368;2022-08-21T05:03:02;7.28;;;3.92;;
68989;SDS011;56046;47.270;11.368;2022-08-21T05:05:28;6.68;;;3.78;;
68989;SDS011;56046;47.270;11.368;2022-08-21T05:07:54;6.50;;;4.17;;
68989;SDS011;56046;47.270;11.368;2022-08-21T05:10:20;6.15;;;3.00;;
68989;SDS011;56046;47.270;11.368;2022-08-21T05:12:46;6.23;;;3.70;;
68989;SDS011;56046;47.270;11.368;2022-08-21T05:15:12;6.15;;;3.33;;
68989;SDS011;56046;47.270;11.368;2022-08-21T05:17:38;5.63;;;3.40;;
68989;SDS011;56046;47.270;11.368;2022-08-21T05:20:03;6.90;;;3.60;;
68989;SDS011;56046;47.270;11.368;2022-08-21T05:22:28;6.68;;;3.50;;
68989;SDS011;56046;47.270;11.368;2022-08-21T05:24:53;6.70;;;3.50;;
68989;SDS011;56046;47.270;11.368;2022-08-21T05:27:19;5.30;;;3.40;;
68989;SDS011;56046;47.270;11.368;2022-08-21T05:29:44;7.07;;;3.00;;
68989;SDS011;56046;47.270;11.368;2022-08-21T05:32:10;4.30;;;2.77;;
68989;SDS011;56046;47.270;11.368;2022-08-21T05:34:36;5.30;;;2.90;;
68989;SDS011;56046;47.270;11.368;2022-08-21T05:37:01;4.23;;;2.30;;
68989;SDS011;56046;47.270;11.368;2022-08-21T05:39:26;5.83;;;3.40;;
68989;SDS011;56046;47.270;11.368;2022-08-21T05:41:51;3.37;;;2.37;;
68989;SDS011;56046;47.270;11.368;2022-08-21T05:44:17;5.47;;;3.00;;
68989;SDS011;56046;47.270;11.368;2022-08-21T05:46:42;3.73;;;2.40;;
68989;SDS011;56046;47.270;11.368;2022-08-21T05:49:07;3.20;;;1.90;;
68989;SDS011;56046;47.270;11.368;2022-08-21T05:51:32;3.13;;;2.10;;
68989;SDS011;56046;47.270;11.368;2022-08-21T05:53:58;4.63;;;2.80;;
68989;SDS011;56046;47.270;11.368;2022-08-21T05:56:23;4.75;;;2.50;;
68989;SDS011;56046;47.270;11.368;2022-08-21T05:58:48;6.30;;;2.33;;
68989;SDS011;56046;47.270;11.368;2022-08-21T06:01:13;4.60;;;2.23;;
68989;SDS011;56046;47.270;11.368;2022-08-21T06:03:40;6.23;;;3.07;;
68989;SDS011;56046;47.270;11.368;2022-08-21T06:06:05;4.85;;;2.70;;
68989;SDS011;56046;47.270;11.368;2022-08-21T06:08:31;4.60;;;2.72;;
68989;SDS011;56046;47.270;11.368;2022-08-21T06:10:57;5.13;;;2.70;;
68989;SDS011;56046;47.270;11.368;2022-08-21T06:13:23;6.68;;;2.90;;
68989;SDS011;56046;47.270;11.368;2022-08-21T06:15:49;4.67;;;2.60;;
68989;SDS011;56046;47.270;11.368;2022-08-21T06:18:15;6.45;;;3.08;;
68989;SDS011;56046;47.270;11.368;2022-08-21T06:20:40;7.20;;;2.93;;
68989;SDS011;56046;47.270;11.368;2022-08-21T06:23:06;6.93;;;3.17;;
68989;SDS011;56046;47.270;11.368;2022-08-21T06:25:31;4.47;;;2.67;;
68989;SDS011;56046;47.270;11.368;2022-08-21T06:28:14;4.50;;;2.83;;
68989;SDS011;56046;47.270;11.368;2022-08-21T06:30:40;4.45;;;3.15;;
68989;SDS011;56046;47.270;11.368;2022-08-21T06:33:05;4.83;;;2.90;;
68989;SDS011;56046;47.270;11.368;2022-08-21T06:35:32;3.90;;;2.72;;
68989;SDS011;56046;47.270;11.368;2022-08-21T06:37:57;4.87;;;2.70;;
68989;SDS011;56046;47.270;11.368;2022-08-21T06:40:23;7.27;;;3.00;;
68989;SDS011;56046;47.270;11.368;2022-08-21T06:42:48;4.18;;;2.42;;
68989;SDS011;56046;47.270;11.368;2022-08-21T06:45:14;4.80;;;2.90;;
68989;SDS011;56046;47.270;11.368;2022-08-21T06:47:39;4.97;;;3.00;;
68989;SDS011;56046;47.270;11.368;2022-08-21T06:50:05;4.83;;;2.63;;
68989;SDS011;56046;47.270;11.368;2022-08-21T06:52:32;4.67;;;2.10;;
68989;SDS011;56046;47.270;11.368;2022-08-21T06:54:57;6.35;;;2.70;;
68989;SDS011;56046;47.270;11.368;2022-08-21T06:57:23;4.43;;;3.03;;
68989;SDS011;56046;47.270;11.368;2022-08-21T06:59:48;5.40;;;2.50;;
68989;SDS011;56046;47.270;11.368;2022-08-21T07:02:13;4.60;;;2.80;;
68989;SDS011;56046;47.270;11.368;2022-08-21T07:04:39;3.83;;;2.70;;
68989;SDS011;56046;47.270;11.368;2022-08-21T07:07:04;4.13;;;2.63;;
68989;SDS011;56046;47.270;11.368;2022-08-21T07:09:30;5.60;;;2.35;;
68989;SDS011;56046;47.270;11.368;2022-08-21T07:11:55;5.23;;;3.07;;
68989;SDS011;56046;47.270;11.368;2022-08-21T07:14:21;4.15;;;2.50;;
68989;SDS011;56046;47.270;11.368;2022-08-21T07:16:47;5.73;;;2.50;;
68989;SDS011;56046;47.270;11.368;2022-08-21T07:19:12;4.50;;;3.10;;
68989;SDS011;56046;47.270;11.368;2022-08-21T07:21:37;3.00;;;2.13;;
68989;SDS011;56046;47.270;11.368;2022-08-21T07:24:02;5.03;;;2.80;;
68989;SDS011;56046;47.270;11.368;2022-08-21T07:26:28;5.17;;;2.60;;
68989;SDS011;56046;47.270;11.368;2022-08-21T07:28:53;4.07;;;2.50;;
68989;SDS011;56046;47.270;11.368;2022-08-21T07:31:20;3.87;;;2.60;;
68989;SDS011;56046;47.270;11.368;2022-08-21T07:33:46;3.67;;;2.42;;
68989;SDS011;56046;47.270;11.368;2022-08-21T07:36:11;3.00;;;2.50;;
68989;SDS011;56046;47.270;11.368;2022-08-21T07:38:37;4.93;;;2.80;;
68989;SDS011;56046;47.270;11.368;2022-08-21T07:41:02;3.97;;;2.30;;
68989;SDS011;56046;47.270;11.368;2022-08-21T07:43:31;2.87;;;2.03;;
68989;SDS011;56046;47.270;11.368;2022-08-21T07:45:56;2.88;;;2.03;;
68989;SDS011;56046;47.270;11.368;2022-08-21T07:48:22;3.80;;;2.23;;
68989;SDS011;56046;47.270;11.368;2022-08-21T07:50:47;2.93;;;2.20;;
68989;SDS011;56046;47.270;11.368;2022-08-21T07:53:13;5.15;;;2.55;;
68989;SDS011;56046;47.270;11.368;2022-08-21T07:55:39;3.87;;;2.40;;
68989;SDS011;56046;47.270;11.368;2022-08-21T07:58:04;3.47;;;2.43;;
68989;SDS011;56046;47.270;11.368;2022-08-21T08:00:29;2.65;;;1.92;;
68989;SDS011;56046;47.270;11.368;2022-08-21T08:02:55;2.70;;;2.43;;
68989;SDS011;56046;47.270;11.368;2022-08-21T08:05:22;3.30;;;2.58;;
68989;SDS011;56046;47.270;11.368;2022-08-21T08:07:48;3.63;;;2.05;;
68989;SDS011;56046;47.270;11.368;2022-08-21T08:10:14;3.40;;;2.23;;
68989;SDS011;56046;47.270;11.368;2022-08-21T08:12:40;2.80;;;2.47;;
68989;SDS011;56046;47.270;11.368;2022-08-21T08:15:06;2.85;;;2.50;;
68989;SDS011;56046;47.270;11.368;2022-08-21T08:17:31;4.03;;;2.38;;
68989;SDS011;56046;47.270;11.368;2022-08-21T08:19:57;3.90;;;2.43;;
68989;SDS011;56046;47.270;11.368;2022-08-21T08:22:23;3.23;;;1.97;;
68989;SDS011;56046;47.270;11.368;2022-08-21T08:24:49;3.28;;;2.45;;
68989;SDS011;56046;47.270;11.368;2022-08-21T08:27:15;2.83;;;2.40;;
68989;SDS011;56046;47.270;11.368;2022-08-21T08:29:41;4.33;;;2.80;;
68989;SDS011;56046;47.270;11.368;2022-08-21T08:32:06;3.08;;;2.28;;
68989;SDS011;56046;47.270;11.368;2022-08-21T08:34:35;3.20;;;2.50;;
68989;SDS011;56046;47.270;11.368;2022-08-21T08:37:00;4.82;;;2.30;;
68989;SDS011;56046;47.270;11.368;2022-08-21T08:39:26;3.08;;;2.65;;
68989;SDS011;56046;47.270;11.368;2022-08-21T08:41:57;2.87;;;2.17;;
68989;SDS011;56046;47.270;11.368;2022-08-21T08:44:24;3.03;;;2.60;;
68989;SDS011;56046;47.270;11.368;2022-08-21T08:46:50;2.97;;;2.27;;
68989;SDS011;56046;47.270;11.368;2022-08-21T08:49:20;2.50;;;2.25;;
68989;SDS011;56046;47.270;11.368;2022-08-21T08:51:55;2.47;;;2.00;;
68989;SDS011;56046;47.270;11.368;2022-08-21T08:54:32;2.42;;;2.05;;
68989;SDS011;56046;47.270;11.368;2022-08-21T08:57:02;2.65;;;2.30;;
68989;SDS011;56046;47.270;11.368;2022-08-21T08:59:42;2.63;;;2.03;;
68989;SDS011;56046;47.270;11.368;2022-08-21T09:02:09;3.42;;;2.60;;
68989;SDS011;56046;47.270;11.368;2022-08-21T09:04:35;3.63;;;2.53;;
68989;SDS011;56046;47.270;11.368;2022-08-21T09:09:42;3.47;;;2.45;;
68989;SDS011;56046;47.270;11.368;2022-08-21T09:12:14;3.20;;;2.40;;
68989;SDS011;56046;47.270;11.368;2022-08-21T09:20:03;2.50;;;2.20;;
68989;SDS011;56046;47.270;11.368;2022-08-21T09:25:19;2.50;;;2.10;;
68989;SDS011;56046;47.270;11.368;2022-08-21T09:27:45;3.35;;;2.53;;
68989;SDS011;56046;47.270;11.368;2022-08-21T09:30:11;2.73;;;2.30;;
68989;SDS011;56046;47.270;11.368;2022-08-21T09:32:36;3.27;;;2.40;;
68989;SDS011;56046;47.270;11.368;2022-08-21T09:35:09;3.33;;;2.10;;
68989;SDS011;56046;47.270;11.368;2022-08-21T09:37:45;3.35;;;2.30;;
68989;SDS011;56046;47.270;11.368;2022-08-21T09:40:26;3.80;;;2.50;;
68989;SDS011;56046;47.270;11.368;2022-08-21T09:42:56;3.00;;;1.92;;
68989;SDS011;56046;47.270;11.368;2022-08-21T09:45:22;2.70;;;2.33;;
68989;SDS011;56046;47.270;11.368;2022-08-21T09:47:47;2.67;;;1.90;;
68989;SDS011;56046;47.270;11.368;2022-08-21T09:50:23;2.70;;;2.50;;
68989;SDS011;56046;47.270;11.368;2022-08-21T09:52:50;3.17;;;2.00;;
68989;SDS011;56046;47.270;11.368;2022-08-21T09:55:26;3.78;;;2.20;;
68989;SDS011;56046;47.270;11.368;2022-08-21T09:58:13;2.90;;;2.40;;
68989;SDS011;56046;47.270;11.368;2022-08-21T10:00:38;2.53;;;2.30;;
68989;SDS011;56046;47.270;11.368;2022-08-21T10:03:14;3.63;;;2.33;;
68989;SDS011;56046;47.270;11.368;2022-08-21T10:05:49;3.60;;;2.40;;
68989;SDS011;56046;47.270;11.368;2022-08-21T10:08:21;3.45;;;2.17;;
68989;SDS011;56046;47.270;11.368;2022-08-21T10:10:50;2.17;;;1.80;;
68989;SDS011;56046;47.270;11.368;2022-08-21T10:18:24;2.85;;;1.92;;
68989;SDS011;56046;47.270;11.368;2022-08-21T10:20:59;2.30;;;1.87;;
68989;SDS011;56046;47.270;11.368;2022-08-21T10:23:37;2.58;;;2.35;;
68989;SDS011;56046;47.270;11.368;2022-08-21T10:26:26;2.90;;;2.25;;
68989;SDS011;56046;47.270;11.368;2022-08-21T10:34:23;3.43;;;2.10;;
68989;SDS011;56046;47.270;11.368;2022-08-21T10:39:27;2.35;;;1.90;;
68989;SDS011;56046;47.270;11.368;2022-08-21T10:41:59;2.47;;;2.22;;
68989;SDS011;56046;47.270;11.368;2022-08-21T10:54:50;1.85;;;1.58;;
68989;SDS011;56046;47.270;11.368;2022-08-21T11:00:06;2.20;;;2.00;;
68989;SDS011;56046;47.270;11.368;2022-08-21T11:07:53;2.35;;;1.95;;
68989;SDS011;56046;47.270;11.368;2022-08-21T11:10:26;2.20;;;1.80;;
68989;SDS011;56046;47.270;11.368;2022-08-21T11:13:03;3.00;;;2.10;;
68989;SDS011;56046;47.270;11.368;2022-08-21T11:15:36;1.40;;;1.20;;
68989;SDS011;56046;47.270;11.368;2022-08-21T11:20:31;1.77;;;1.67;;
68989;SDS011;56046;47.270;11.368;2022-08-21T11:23:00;2.40;;;2.20;;
68989;SDS011;56046;47.270;11.368;2022-08-21T11:25:32;2.15;;;1.92;;
68989;SDS011;56046;47.270;11.368;2022-08-21T11:28:06;2.10;;;1.90;;
68989;SDS011;56046;47.270;11.368;2022-08-21T11:35:46;2.27;;;1.80;;
68989;SDS011;56046;47.270;11.368;2022-08-21T11:40:44;2.05;;;1.90;;
68989;SDS011;56046;47.270;11.368;2022-08-21T11:43:16;1.97;;;1.70;;
68989;SDS011;56046;47.270;11.368;2022-08-21T11:45:47;2.10;;;1.90;;
68989;SDS011;56046;47.270;11.368;2022-08-21T11:50:39;1.40;;;1.27;;
68989;SDS011;56046;47.270;11.368;2022-08-21T11:58:09;2.20;;;2.00;;
68989;SDS011;56046;47.270;11.368;2022-08-21T12:00:41;1.17;;;1.07;;
68989;SDS011;56046;47.270;11.368;2022-08-21T12:03:09;1.05;;;0.90;;
68989;SDS011;56046;47.270;11.368;2022-08-21T12:05:52;1.40;;;1.27;;
68989;SDS011;56046;47.270;11.368;2022-08-21T12:11:05;1.88;;;1.30;;
68989;SDS011;56046;47.270;11.368;2022-08-21T12:13:33;1.60;;;1.30;;
68989;SDS011;56046;47.270;11.368;2022-08-21T12:16:15;1.63;;;0.90;;
68989;SDS011;56046;47.270;11.368;2022-08-21T12:18:41;1.83;;;1.67;;
68989;SDS011;56046;47.270;11.368;2022-08-21T12:23:47;1.95;;;1.70;;
68989;SDS011;56046;47.270;11.368;2022-08-21T12:28:37;1.85;;;1.75;;
68989;SDS011;56046;47.270;11.368;2022-08-21T12:31:03;1.60;;;1.43;;
68989;SDS011;56046;47.270;11.368;2022-08-21T12:33:31;1.85;;;1.75;;
68989;SDS011;56046;47.270;11.368;2022-08-21T12:36:04;1.93;;;1.73;;
68989;SDS011;56046;47.270;11.368;2022-08-21T12:39:14;1.75;;;1.45;;
68989;SDS011;56046;47.270;11.368;2022-08-21T12:41:33;1.85;;;1.70;;
68989;SDS011;56046;47.270;11.368;2022-08-21T12:44:04;1.80;;;1.70;;
68989;SDS011;56046;47.270;11.368;2022-08-21T12:48:58;1.73;;;1.63;;
68989;SDS011;56046;47.270;11.368;2022-08-21T12:51:27;2.47;;;1.80;;
68989;SDS011;56046;47.270;11.368;2022-08-21T12:53:58;2.93;;;1.90;;
68989;SDS011;56046;47.270;11.368;2022-08-21T12:56:24;3.35;;;2.05;;
68989;SDS011;56046;47.270;11.368;2022-08-21T12:58:51;1.90;;;1.42;;
68989;SDS011;56046;47.270;11.368;2022-08-21T13:01:19;1.92;;;1.67;;
68989;SDS011;56046;47.270;11.368;2022-08-21T13:03:45;2.78;;;1.83;;
68989;SDS011;56046;47.270;11.368;2022-08-21T13:06:15;2.10;;;1.90;;
68989;SDS011;56046;47.270;11.368;2022-08-21T13:08:41;1.30;;;1.20;;
68989;SDS011;56046;47.270;11.368;2022-08-21T13:11:07;2.33;;;1.58;;
68989;SDS011;56046;47.270;11.368;2022-08-21T13:13:34;1.60;;;1.48;;
68989;SDS011;56046;47.270;11.368;2022-08-21T13:16:04;1.93;;;1.80;;
68989;SDS011;56046;47.270;11.368;2022-08-21T13:18:30;1.80;;;1.63;;
68989;SDS011;56046;47.270;11.368;2022-08-21T13:21:03;1.60;;;1.33;;
68989;SDS011;56046;47.270;11.368;2022-08-21T13:23:29;2.10;;;1.55;;
68989;SDS011;56046;47.270;11.368;2022-08-21T13:25:55;2.30;;;1.33;;
68989;SDS011;56046;47.270;11.368;2022-08-21T13:28:21;3.05;;;1.88;;
68989;SDS011;56046;47.270;11.368;2022-08-21T13:30:53;2.30;;;2.00;;
68989;SDS011;56046;47.270;11.368;2022-08-21T13:33:20;2.10;;;1.90;;
68989;SDS011;56046;47.270;11.368;2022-08-21T13:38:12;2.05;;;1.85;;
68989;SDS011;56046;47.270;11.368;2022-08-21T13:40:48;2.10;;;1.90;;
68989;SDS011;56046;47.270;11.368;2022-08-21T13:43:14;2.42;;;1.80;;
68989;SDS011;56046;47.270;11.368;2022-08-21T13:45:43;2.47;;;2.05;;
68989;SDS011;56046;47.270;11.368;2022-08-21T13:48:08;2.20;;;1.60;;
68989;SDS011;56046;47.270;11.368;2022-08-21T13:50:35;2.53;;;1.70;;
68989;SDS011;56046;47.270;11.368;2022-08-21T13:53:05;2.20;;;2.00;;
68989;SDS011;56046;47.270;11.368;2022-08-21T13:55:40;2.15;;;1.92;;
68989;SDS011;56046;47.270;11.368;2022-08-21T13:58:06;2.07;;;1.87;;
68989;SDS011;56046;47.270;11.368;2022-08-21T14:00:33;2.22;;;1.80;;
68989;SDS011;56046;47.270;11.368;2022-08-21T14:03:08;1.60;;;1.27;;
68989;SDS011;56046;47.270;11.368;2022-08-21T14:05:35;2.38;;;2.08;;
68989;SDS011;56046;47.270;11.368;2022-08-21T14:10:29;2.20;;;1.93;;
68989;SDS011;56046;47.270;11.368;2022-08-21T14:12:58;2.05;;;1.85;;
68989;SDS011;56046;47.270;11.368;2022-08-21T14:15:28;2.40;;;1.90;;
68989;SDS011;56046;47.270;11.368;2022-08-21T14:17:53;2.10;;;1.83;;
68989;SDS011;56046;47.270;11.368;2022-08-21T14:20:27;2.13;;;1.52;;
68989;SDS011;56046;47.270;11.368;2022-08-21T14:22:53;1.60;;;1.50;;
68989;SDS011;56046;47.270;11.368;2022-08-21T14:30:20;2.60;;;2.00;;
68989;SDS011;56046;47.270;11.368;2022-08-21T14:32:46;3.15;;;1.90;;
68989;SDS011;56046;47.270;11.368;2022-08-21T14:35:12;2.10;;;1.70;;
68989;SDS011;56046;47.270;11.368;2022-08-21T14:37:37;3.47;;;2.10;;
68989;SDS011;56046;47.270;11.368;2022-08-21T14:40:06;2.37;;;1.53;;
68989;SDS011;56046;47.270;11.368;2022-08-21T14:42:31;2.05;;;1.60;;
68989;SDS011;56046;47.270;11.368;2022-08-21T14:44:59;2.53;;;2.00;;
68989;SDS011;56046;47.270;11.368;2022-08-21T14:47:25;2.30;;;2.10;;
68989;SDS011;56046;47.270;11.368;2022-08-21T14:49:51;2.60;;;2.00;;
68989;SDS011;56046;47.270;11.368;2022-08-21T14:52:18;2.00;;;1.80;;
68989;SDS011;56046;47.270;11.368;2022-08-21T14:54:44;2.00;;;1.47;;
68989;SDS011;56046;47.270;11.368;2022-08-21T14:57:10;2.83;;;1.93;;
68989;SDS011;56046;47.270;11.368;2022-08-21T14:59:37;2.30;;;1.80;;
68989;SDS011;56046;47.270;11.368;2022-08-21T15:02:02;1.70;;;1.43;;
68989;SDS011;56046;47.270;11.368;2022-08-21T15:04:32;2.33;;;1.93;;
68989;SDS011;56046;47.270;11.368;2022-08-21T15:06:57;2.05;;;1.50;;
68989;SDS011;56046;47.270;11.368;2022-08-21T15:09:22;2.47;;;1.97;;
68989;SDS011;56046;47.270;11.368;2022-08-21T15:11:48;3.08;;;1.98;;
68989;SDS011;56046;47.270;11.368;2022-08-21T15:14:17;2.90;;;1.80;;
68989;SDS011;56046;47.270;11.368;2022-08-21T15:16:43;2.17;;;1.77;;
68989;SDS011;56046;47.270;11.368;2022-08-21T15:19:08;2.57;;;1.63;;
68989;SDS011;56046;47.270;11.368;2022-08-21T15:21:34;1.83;;;1.63;;
68989;SDS011;56046;47.270;11.368;2022-08-21T15:23:59;2.23;;;2.03;;
68989;SDS011;56046;47.270;11.368;2022-08-21T15:26:24;2.53;;;2.03;;
68989;SDS011;56046;47.270;11.368;2022-08-21T15:28:50;2.00;;;1.67;;
68989;SDS011;56046;47.270;11.368;2022-08-21T15:31:15;3.40;;;1.73;;
68989;SDS011;56046;47.270;11.368;2022-08-21T15:33:40;2.37;;;1.97;;
68989;SDS011;56046;47.270;11.368;2022-08-21T15:36:06;2.20;;;1.83;;
68989;SDS011;56046;47.270;11.368;2022-08-21T15:38:31;2.08;;;1.80;;
68989;SDS011;56046;47.270;11.368;2022-08-21T15:40:57;2.43;;;2.07;;
68989;SDS011;56046;47.270;11.368;2022-08-21T15:43:26;3.00;;;1.90;;
68989;SDS011;56046;47.270;11.368;2022-08-21T15:45:51;2.83;;;2.00;;
68989;SDS011;56046;47.270;11.368;2022-08-21T15:48:17;2.50;;;2.10;;
68989;SDS011;56046;47.270;11.368;2022-08-21T15:50:42;4.72;;;2.20;;
68989;SDS011;56046;47.270;11.368;2022-08-21T15:53:08;2.23;;;1.90;;
68989;SDS011;56046;47.270;11.368;2022-08-21T15:55:33;1.97;;;1.77;;